Time;durP1;ratioP1;P1;durP2;ratioP2;P2;SDS_P1;SDS_P2;PMS_P1;PMS_P2;Temp;Humidity;BMP_temperature;BMP_pressure;BME280_temperature;BME280_humidity;BME280_pressure;Samples;Min_cycle;Max_cycle;Signal;HPM_P1;HPM_P2
2023/12/27 00:04:11;;;;;;;0.60;0.37;;;13.20;99.90;;;;;;10494771;28;20701;-82
2023/12/27 00:09:13;;;;;;;0.57;0.40;;;13.00;99.90;;;;;;10494642;28;20532;-82
2023/12/27 00:14:16;;;;;;;0.40;0.20;;;13.10;99.90;;;;;;10484212;28;20269;-82
2023/12/27 00:19:18;;;;;;;0.97;0.40;;;12.60;99.90;;;;;;10450938;28;20230;-82
2023/12/27 00:24:21;;;;;;;0.50;0.30;;;12.80;99.90;;;;;;10452236;28;20237;-82
2023/12/27 00:29:24;;;;;;;2.00;0.73;;;12.70;99.90;;;;;;10452261;28;20230;-82
2023/12/27 00:34:26;;;;;;;1.13;0.50;;;12.50;99.90;;;;;;10443286;28;20245;-81
2023/12/27 00:39:30;;;;;;;1.20;0.40;;;13.00;99.90;;;;;;10484633;28;20229;-82
2023/12/27 00:44:33;;;;;;;0.73;0.40;;;13.00;99.90;;;;;;10473821;28;20296;-81
2023/12/27 00:49:36;;;;;;;2.47;1.13;;;12.80;99.90;;;;;;10409526;28;20295;-81
2023/12/27 00:54:39;;;;;;;0.60;0.40;;;13.30;99.90;;;;;;10409013;28;20259;-82
2023/12/27 00:59:42;;;;;;;0.77;0.30;;;13.30;99.90;;;;;;10408229;28;20235;-82
2023/12/27 01:04:45;;;;;;;0.43;0.30;;;13.60;99.90;;;;;;10434519;28;20313;-82
2023/12/27 01:09:48;;;;;;;2.23;0.70;;;13.90;99.90;;;;;;10449978;28;20219;-82
2023/12/27 01:14:50;;;;;;;0.30;0.10;;;13.50;99.90;;;;;;10450265;28;20784;-81
2023/12/27 01:19:53;;;;;;;0.30;0.23;;;13.60;99.90;;;;;;10448373;28;20235;-81
2023/12/27 01:24:56;;;;;;;0.73;0.40;;;13.70;99.90;;;;;;10448189;28;20324;-81
2023/12/27 01:29:59;;;;;;;2.37;1.00;;;13.10;99.90;;;;;;10448109;28;20239;-81
2023/12/27 01:35:02;;;;;;;1.50;0.60;;;13.20;99.90;;;;;;10434005;28;20251;-81
2023/12/27 01:40:06;;;;;;;0.80;0.23;;;13.10;99.90;;;;;;10418683;28;20612;-81
2023/12/27 01:45:08;;;;;;;0.63;0.40;;;13.30;99.90;;;;;;10446181;28;20308;-81
2023/12/27 01:50:11;;;;;;;2.17;0.53;;;12.90;99.90;;;;;;10441882;28;20204;-81
2023/12/27 01:55:16;;;;;;;1.13;0.30;;;12.90;99.90;;;;;;10486996;28;20246;-81
2023/12/27 02:00:18;;;;;;;2.07;0.50;;;13.10;99.90;;;;;;10443203;28;20640;-81
2023/12/27 02:05:21;;;;;;;2.17;0.70;;;13.10;99.90;;;;;;10408731;28;20260;-81
2023/12/27 02:10:23;;;;;;;0.50;0.23;;;13.60;99.90;;;;;;10407198;28;20231;-81
2023/12/27 02:15:26;;;;;;;0.53;0.53;;;13.00;99.90;;;;;;10419109;28;20264;-81
2023/12/27 02:20:29;;;;;;;0.80;0.40;;;13.60;99.90;;;;;;10448103;28;20742;-81
2023/12/27 02:25:32;;;;;;;4.53;0.60;;;14.20;99.90;;;;;;10454043;28;20702;-81
2023/12/27 02:30:36;;;;;;;1.83;0.50;;;13.90;99.90;;;;;;10433826;28;20680;-81
2023/12/27 02:35:39;;;;;;;1.43;0.50;;;13.70;99.90;;;;;;10407565;28;20731;-81
2023/12/27 02:40:42;;;;;;;0.30;0.20;;;13.80;99.90;;;;;;10415667;28;20301;-81
2023/12/27 02:45:45;;;;;;;0.37;0.27;;;14.10;99.90;;;;;;10453202;28;20231;-81
2023/12/27 02:50:48;;;;;;;2.73;0.53;;;14.10;99.90;;;;;;10414006;28;20313;-81
2023/12/27 02:55:50;;;;;;;0.77;0.50;;;13.90;99.90;;;;;;10421057;28;20254;-81
2023/12/27 03:00:52;;;;;;;3.10;1.17;;;13.20;99.90;;;;;;10456839;28;20195;-81
2023/12/27 03:05:55;;;;;;;1.10;0.50;;;13.50;99.90;;;;;;10455284;28;20216;-81
2023/12/27 03:10:58;;;;;;;2.50;0.60;;;13.50;99.90;;;;;;10437903;28;20248;-81
2023/12/27 03:16:07;;;;;;;1.03;0.47;;;13.50;99.90;;;;;;10414516;28;20250;-81
2023/12/27 03:21:09;;;;;;;4.60;0.40;;;13.40;99.90;;;;;;10414169;28;20678;-81
2023/12/27 03:26:12;;;;;;;0.57;0.20;;;13.40;99.90;;;;;;10413115;28;20271;-81
2023/12/27 03:31:14;;;;;;;0.30;0.13;;;13.60;99.90;;;;;;10413959;28;20224;-81
2023/12/27 03:36:19;;;;;;;1.13;0.37;;;13.40;99.90;;;;;;10468042;28;20288;-81
2023/12/27 03:41:21;;;;;;;2.20;0.30;;;13.80;99.90;;;;;;10496331;28;20254;-82
2023/12/27 03:46:24;;;;;;;1.27;0.30;;;13.70;99.90;;;;;;10494520;28;20230;-81
2023/12/27 03:51:26;;;;;;;1.83;0.43;;;13.60;99.90;;;;;;10495019;28;20242;-81
2023/12/27 03:56:29;;;;;;;1.27;0.30;;;13.50;99.90;;;;;;10494686;28;20302;-81
2023/12/27 04:01:33;;;;;;;4.40;0.30;;;13.90;99.90;;;;;;10472435;28;21040;-81
2023/12/27 04:06:35;;;;;;;3.33;0.80;;;13.70;99.90;;;;;;10452509;28;20252;-81
2023/12/27 04:11:45;;;;;;;0.53;0.30;;;13.70;99.90;;;;;;10452807;28;20248;-81
2023/12/27 04:16:47;;;;;;;6.90;0.67;;;13.30;99.90;;;;;;10452510;28;20815;-81
2023/12/27 04:21:50;;;;;;;2.50;0.40;;;13.30;99.90;;;;;;10452917;28;20261;-81
2023/12/27 04:26:52;;;;;;;0.40;0.20;;;13.30;99.90;;;;;;10442033;28;20668;-81
2023/12/27 04:31:55;;;;;;;3.07;0.60;;;13.10;99.90;;;;;;10494029;28;20241;-81
2023/12/27 04:36:57;;;;;;;2.50;0.40;;;13.00;99.90;;;;;;10492230;28;20261;-81
2023/12/27 04:42:00;;;;;;;3.43;1.17;;;13.60;99.90;;;;;;10493937;28;20237;-81
2023/12/27 04:47:02;;;;;;;0.70;0.40;;;13.00;99.90;;;;;;10492213;28;20210;-82
2023/12/27 04:52:05;;;;;;;7.77;1.07;;;13.00;99.90;;;;;;10463347;28;20239;-81
2023/12/27 04:57:07;;;;;;;0.50;0.10;;;13.30;99.90;;;;;;10432030;28;20259;-81
2023/12/27 05:02:10;;;;;;;3.23;0.70;;;13.50;99.90;;;;;;10434343;28;20283;-81
2023/12/27 05:07:13;;;;;;;4.83;0.47;;;13.20;99.90;;;;;;10430886;28;20229;-81
2023/12/27 05:12:15;;;;;;;2.43;0.67;;;13.40;99.90;;;;;;10474373;28;20624;-81
2023/12/27 05:17:18;;;;;;;2.50;0.30;;;13.50;99.90;;;;;;10437923;28;20316;-81
2023/12/27 05:22:21;;;;;;;1.90;0.30;;;13.30;99.90;;;;;;10471547;28;20678;-81
2023/12/27 05:27:23;;;;;;;0.83;0.20;;;13.70;99.90;;;;;;10492289;28;20263;-81
2023/12/27 05:32:25;;;;;;;2.73;0.47;;;13.90;99.90;;;;;;10490781;28;20226;-81
2023/12/27 05:37:28;;;;;;;2.37;0.70;;;14.10;99.90;;;;;;10458914;28;20246;-81
2023/12/27 05:42:30;;;;;;;1.47;0.50;;;13.50;99.90;;;;;;10420017;28;20219;-82
2023/12/27 05:47:33;;;;;;;1.83;0.27;;;13.10;99.90;;;;;;10409454;28;20313;-82
2023/12/27 05:52:36;;;;;;;0.57;0.27;;;13.80;99.90;;;;;;10449047;28;20313;-82
2023/12/27 05:57:39;;;;;;;0.97;0.50;;;13.90;99.90;;;;;;10465367;28;20706;-82
2023/12/27 06:02:43;;;;;;;2.93;0.80;;;13.60;99.90;;;;;;10478516;28;20210;-82
2023/12/27 06:07:46;;;;;;;1.07;0.40;;;13.60;99.90;;;;;;10448775;28;20300;-82
2023/12/27 06:12:49;;;;;;;1.40;0.33;;;13.40;99.90;;;;;;10456622;28;20681;-81
2023/12/27 06:17:51;;;;;;;1.27;0.40;;;13.80;99.90;;;;;;10426863;28;20223;-82
2023/12/27 06:22:54;;;;;;;1.67;0.50;;;13.90;99.90;;;;;;10421850;28;20609;-82
2023/12/27 06:27:57;;;;;;;2.43;0.53;;;13.30;99.90;;;;;;10420991;28;20259;-82
2023/12/27 06:33:01;;;;;;;2.50;0.53;;;13.30;99.90;;;;;;10470095;28;20257;-82
2023/12/27 06:38:04;;;;;;;1.43;0.60;;;13.50;99.90;;;;;;10503338;28;20370;-82
2023/12/27 06:43:06;;;;;;;1.13;0.50;;;13.60;99.90;;;;;;10478779;28;20233;-82
2023/12/27 06:48:09;;;;;;;4.40;0.73;;;13.00;99.90;;;;;;10459307;28;20249;-82
2023/12/27 06:53:12;;;;;;;4.93;0.67;;;13.20;99.90;;;;;;10459241;28;20260;-82
2023/12/27 06:58:15;;;;;;;1.23;0.60;;;12.60;99.90;;;;;;10461024;28;20278;-82
2023/12/27 07:03:18;;;;;;;0.30;0.27;;;12.90;99.90;;;;;;10460413;28;20310;-82
2023/12/27 07:08:26;;;;;;;2.63;1.60;;;12.90;99.90;;;;;;10460291;28;20245;-82
2023/12/27 07:13:33;;;;;;;4.27;1.20;;;12.70;99.90;;;;;;10456892;28;20316;-82
2023/12/27 07:18:35;;;;;;;2.93;1.07;;;12.80;99.90;;;;;;10467263;28;20246;-81
2023/12/27 07:23:38;;;;;;;5.97;1.33;;;12.70;99.90;;;;;;10462458;28;20287;-82
2023/12/27 07:28:41;;;;;;;1.60;0.73;;;12.50;99.90;;;;;;10494631;28;20261;-82
2023/12/27 07:33:44;;;;;;;3.63;0.80;;;12.50;99.90;;;;;;10495552;28;20245;-82
2023/12/27 07:38:46;;;;;;;3.80;1.00;;;12.70;99.90;;;;;;10456905;28;20630;-82
2023/12/27 07:43:49;;;;;;;2.83;0.70;;;12.30;99.90;;;;;;10411980;28;20579;-82
2023/12/27 07:48:51;;;;;;;1.60;0.60;;;12.30;99.90;;;;;;10429954;28;20259;-82
2023/12/27 07:53:54;;;;;;;0.67;0.40;;;12.40;99.90;;;;;;10458571;28;20241;-82
2023/12/27 07:58:58;;;;;;;4.57;0.70;;;12.50;99.90;;;;;;10495055;28;20664;-82
2023/12/27 08:04:01;;;;;;;1.90;0.47;;;13.00;99.90;;;;;;10479508;28;20232;-82
2023/12/27 08:09:04;;;;;;;1.23;0.70;;;12.90;99.90;;;;;;10452118;28;20931;-81
2023/12/27 08:14:07;;;;;;;1.97;0.80;;;13.00;99.90;;;;;;10470328;28;20308;-82
2023/12/27 08:19:10;;;;;;;1.43;0.30;;;12.50;99.90;;;;;;10486467;28;20614;-82
2023/12/27 08:24:12;;;;;;;1.20;0.47;;;13.00;99.90;;;;;;10452017;28;20285;-82
2023/12/27 08:29:15;;;;;;;3.53;0.70;;;13.30;99.90;;;;;;10448897;28;20251;-82
2023/12/27 08:34:18;;;;;;;2.23;0.50;;;13.50;99.90;;;;;;10476650;28;20265;-82
2023/12/27 08:39:21;;;;;;;2.00;0.50;;;13.80;99.90;;;;;;10452744;28;20749;-82
2023/12/27 08:44:23;;;;;;;2.13;1.17;;;13.50;99.90;;;;;;10451271;28;20231;-82
2023/12/27 08:49:26;;;;;;;0.70;0.33;;;13.30;99.90;;;;;;10450959;28;20595;-82
2023/12/27 08:54:28;;;;;;;1.17;0.60;;;13.20;99.90;;;;;;10454505;28;20662;-82
2023/12/27 08:59:31;;;;;;;8.00;1.07;;;13.30;99.90;;;;;;10449180;28;20218;-82
2023/12/27 09:04:33;;;;;;;6.77;1.67;;;13.20;99.90;;;;;;10451784;28;20227;-81
2023/12/27 09:09:36;;;;;;;1.33;0.50;;;13.00;99.90;;;;;;10451942;28;20288;-81
2023/12/27 09:14:39;;;;;;;2.43;1.13;;;13.00;99.90;;;;;;10478103;28;20634;-82
2023/12/27 09:19:42;;;;;;;1.87;0.40;;;12.60;99.90;;;;;;10431753;28;20689;-82
2023/12/27 09:24:45;;;;;;;0.83;0.60;;;12.90;99.90;;;;;;10448388;28;20258;-81
2023/12/27 09:29:48;;;;;;;5.50;0.70;;;13.60;99.90;;;;;;10467356;28;20297;-82
2023/12/27 09:34:51;;;;;;;3.37;0.90;;;13.70;99.90;;;;;;10450103;28;20250;-81
2023/12/27 09:39:53;;;;;;;3.67;0.90;;;13.60;99.90;;;;;;10450070;28;20243;-81
2023/12/27 09:44:57;;;;;;;4.77;0.93;;;13.40;99.90;;;;;;10448044;28;20226;-81
2023/12/27 09:50:01;;;;;;;2.83;1.03;;;13.60;99.90;;;;;;10449518;28;21021;-81
2023/12/27 09:55:05;;;;;;;4.80;1.63;;;13.50;99.90;;;;;;10452207;28;20251;-81
2023/12/27 10:00:12;;;;;;;4.33;0.60;;;13.50;99.90;;;;;;10449401;28;20234;-81
2023/12/27 10:05:21;;;;;;;0.97;0.50;;;13.50;99.90;;;;;;10447879;28;20287;-82
2023/12/27 10:10:26;;;;;;;2.67;0.27;;;14.10;99.90;;;;;;10437718;28;20701;-82
2023/12/27 10:15:30;;;;;;;4.57;1.87;;;13.90;99.90;;;;;;10474052;28;20271;-82
2023/12/27 10:20:36;;;;;;;2.70;0.93;;;13.80;99.90;;;;;;10437637;28;20278;-81
2023/12/27 10:25:40;;;;;;;2.13;0.93;;;13.70;99.90;;;;;;10460312;28;20340;-81
2023/12/27 10:30:44;;;;;;;0.50;0.23;;;13.80;99.90;;;;;;10452160;28;20222;-81
2023/12/27 10:35:47;;;;;;;1.87;0.67;;;14.30;99.90;;;;;;10454976;28;20280;-82
2023/12/27 10:40:52;;;;;;;1.17;0.33;;;14.50;99.90;;;;;;10467497;28;20759;-82
2023/12/27 10:45:54;;;;;;;1.80;0.67;;;13.70;99.90;;;;;;10481467;28;20223;-82
2023/12/27 10:50:57;;;;;;;5.43;1.20;;;13.70;99.90;;;;;;10412875;28;20629;-81
2023/12/27 10:56:03;;;;;;;3.70;1.00;;;13.70;99.90;;;;;;10408689;28;20666;-82
2023/12/27 11:01:07;;;;;;;7.47;2.03;;;14.10;99.90;;;;;;10443026;28;20660;-82
2023/12/27 11:06:11;;;;;;;6.50;1.60;;;13.10;99.90;;;;;;10423406;28;20239;-82
2023/12/27 11:11:15;;;;;;;2.20;0.63;;;12.60;99.90;;;;;;10434826;28;20299;-81
2023/12/27 11:16:19;;;;;;;5.93;2.03;;;13.10;99.90;;;;;;10437913;28;20255;-82
2023/12/27 11:21:22;;;;;;;6.47;1.20;;;13.10;99.90;;;;;;10476072;28;20767;-82
2023/12/27 11:26:25;;;;;;;1.97;0.90;;;12.40;99.90;;;;;;10496415;28;20254;-82
2023/12/27 11:31:28;;;;;;;2.87;0.53;;;12.30;99.90;;;;;;10458271;28;20270;-82
2023/12/27 11:36:30;;;;;;;3.20;1.10;;;12.20;99.90;;;;;;10437281;28;20297;-81
2023/12/27 11:41:37;;;;;;;5.70;1.93;;;11.50;99.90;;;;;;10418853;28;20637;-82
2023/12/27 11:46:42;;;;;;;0.53;0.37;;;11.60;99.90;;;;;;10453661;28;20235;-82
2023/12/27 11:51:45;;;;;;;2.80;0.90;;;12.00;99.90;;;;;;10453016;28;20635;-82
2023/12/27 11:56:48;;;;;;;3.77;1.40;;;11.60;99.90;;;;;;10415416;28;20308;-81
2023/12/27 12:01:52;;;;;;;2.90;1.03;;;12.10;99.90;;;;;;10460002;28;20671;-81
2023/12/27 12:06:54;;;;;;;1.60;0.87;;;12.20;99.90;;;;;;10478482;28;20230;-82
2023/12/27 12:12:07;;;;;;;1.93;1.03;;;12.30;99.90;;;;;;10475076;28;20230;-82
2023/12/27 12:17:12;;;;;;;3.73;1.40;;;12.40;99.90;;;;;;10462718;28;20680;-82
2023/12/27 12:22:15;;;;;;;1.20;0.37;;;12.60;99.90;;;;;;10476650;28;20292;-82
2023/12/27 12:27:22;;;;;;;0.80;0.50;;;12.80;99.90;;;;;;10461345;28;20387;-82
2023/12/27 12:32:25;;;;;;;3.67;1.10;;;13.50;99.90;;;;;;10461686;28;20242;-81
2023/12/27 12:37:28;;;;;;;3.40;1.27;;;13.00;99.90;;;;;;10472603;28;20254;-82
2023/12/27 12:42:31;;;;;;;4.83;1.50;;;12.90;99.90;;;;;;10436715;28;20281;-81
2023/12/27 12:47:34;;;;;;;3.73;1.40;;;12.60;99.90;;;;;;10451344;28;20253;-82
2023/12/27 12:52:36;;;;;;;5.70;1.50;;;12.80;99.90;;;;;;10451436;28;20238;-82
2023/12/27 12:57:39;;;;;;;5.87;1.70;;;12.10;99.90;;;;;;10452403;28;20292;-81
2023/12/27 13:02:42;;;;;;;4.47;1.67;;;11.80;99.90;;;;;;10439849;28;20304;-81
2023/12/27 13:07:44;;;;;;;7.10;2.40;;;11.80;99.90;;;;;;10449788;28;20707;-82
2023/12/27 13:12:47;;;;;;;3.47;1.63;;;10.70;99.90;;;;;;10483610;28;20744;-82
2023/12/27 13:17:50;;;;;;;1.83;0.80;;;10.60;99.90;;;;;;10448765;28;20312;-82
2023/12/27 13:22:53;;;;;;;8.67;2.20;;;11.60;99.90;;;;;;10449195;28;20239;-82
2023/12/27 13:27:55;;;;;;;2.77;1.47;;;12.10;99.90;;;;;;10446978;28;20266;-82
2023/12/27 13:33:10;;;;;;;3.60;1.60;;;12.50;99.90;;;;;;10443511;28;20306;-82
2023/12/27 13:38:13;;;;;;;3.40;1.67;;;12.20;99.90;;;;;;10405477;28;20262;-82
2023/12/27 13:43:16;;;;;;;7.90;2.63;;;11.50;99.90;;;;;;10421661;28;20661;-82
2023/12/27 13:48:19;;;;;;;9.50;3.00;;;9.90;99.90;;;;;;10447454;28;20226;-82
2023/12/27 13:53:24;;;;;;;10.40;3.20;;;10.50;99.90;;;;;;10445661;28;20254;-82
2023/12/27 13:58:26;;;;;;;6.07;2.53;;;10.00;99.90;;;;;;10444666;28;20254;-81
2023/12/27 14:03:30;;;;;;;8.03;3.33;;;9.70;99.90;;;;;;10444147;28;20683;-82
2023/12/27 14:08:33;;;;;;;10.77;4.33;;;9.50;99.90;;;;;;10446300;28;20302;-82
2023/12/27 14:13:36;;;;;;;10.27;4.00;;;8.40;99.90;;;;;;10445785;28;20246;-82
2023/12/27 14:18:39;;;;;;;9.60;4.80;;;7.70;99.90;;;;;;10446492;28;20258;-82
2023/12/27 14:23:41;;;;;;;13.80;5.07;;;7.50;99.90;;;;;;10448109;28;20637;-81
2023/12/27 14:28:44;;;;;;;13.20;4.67;;;6.70;99.90;;;;;;10099881;28;10000046;-80
2023/12/27 14:33:46;;;;;;;12.50;5.33;;;7.00;99.90;;;;;;10452452;28;20230;-81
2023/12/27 14:38:51;;;;;;;21.90;9.73;;;6.40;99.90;;;;;;10447639;28;20299;-81
2023/12/27 14:43:54;;;;;;;26.60;10.63;;;6.30;99.90;;;;;;10438983;28;20295;-81
2023/12/27 14:48:58;;;;;;;18.27;7.80;;;5.40;99.90;;;;;;10449783;28;20230;-81
2023/12/27 14:54:02;;;;;;;24.43;10.73;;;5.10;99.90;;;;;;10451205;28;20250;-81
2023/12/27 14:59:05;;;;;;;25.53;11.60;;;4.40;99.90;;;;;;10450360;28;20755;-81
2023/12/27 15:04:11;;;;;;;24.53;11.83;;;;;;;;;;10452710;28;20235;-81
2023/12/27 15:09:14;;;;;;;26.77;14.07;;;3.40;99.90;;;;;;10453379;28;20256;-81
2023/12/27 15:14:20;;;;;;;36.13;20.67;;;3.00;99.90;;;;;;10431880;28;20242;-81
2023/12/27 15:19:23;;;;;;;41.60;19.57;;;2.90;99.90;;;;;;10451951;28;20252;-81
2023/12/27 15:24:26;;;;;;;42.57;22.33;;;;;;;;;;10438947;28;20238;-81
2023/12/27 15:29:28;;;;;;;45.37;22.23;;;2.70;99.90;;;;;;10450014;28;20263;-82
2023/12/27 15:34:31;;;;;;;75.37;36.33;;;2.80;99.90;;;;;;10456290;28;20256;-82
2023/12/27 15:39:34;;;;;;;71.13;38.30;;;2.60;99.90;;;;;;10449994;28;20272;-82
2023/12/27 15:44:36;;;;;;;73.37;32.03;;;2.60;99.90;;;;;;10448659;28;20233;-82
2023/12/27 15:49:40;;;;;;;60.50;29.07;;;2.70;99.90;;;;;;10442394;28;20279;-82
2023/12/27 15:54:43;;;;;;;59.47;28.53;;;2.80;99.90;;;;;;10460550;28;20286;-82
2023/12/27 15:59:46;;;;;;;56.20;27.53;;;2.80;99.90;;;;;;10461702;28;20258;-81
2023/12/27 16:04:49;;;;;;;40.73;21.10;;;3.20;99.90;;;;;;10444025;28;20244;-82
2023/12/27 16:09:51;;;;;;;52.67;25.57;;;3.30;99.90;;;;;;10447549;28;20249;-82
2023/12/27 16:14:54;;;;;;;46.37;22.57;;;3.10;99.90;;;;;;10448964;28;20241;-82
2023/12/27 16:19:56;;;;;;;48.30;24.43;;;2.80;99.90;;;;;;10443088;28;20789;-82
2023/12/27 16:24:59;;;;;;;57.80;27.20;;;2.70;99.90;;;;;;10447636;28;20281;-82
2023/12/27 16:30:02;;;;;;;32.50;16.57;;;2.70;99.90;;;;;;10452045;28;20261;-82
2023/12/27 16:35:05;;;;;;;48.70;24.20;;;2.60;99.90;;;;;;10430109;28;20245;-81
2023/12/27 16:40:08;;;;;;;51.27;22.17;;;2.40;99.90;;;;;;10467256;28;20280;-81
2023/12/27 16:45:11;;;;;;;54.60;24.03;;;2.30;99.90;;;;;;10473763;28;20234;-81
2023/12/27 16:50:14;;;;;;;56.90;25.40;;;2.00;99.90;;;;;;10444671;28;20639;-81
2023/12/27 16:55:16;;;;;;;47.53;26.10;;;1.90;99.90;;;;;;10398408;28;20210;-81
2023/12/27 17:00:20;;;;;;;73.67;34.97;;;1.90;99.90;;;;;;10450499;28;20925;-80
2023/12/27 17:05:22;;;;;;;74.80;34.73;;;2.00;99.90;;;;;;10451933;28;20247;-82
2023/12/27 17:10:25;;;;;;;49.67;29.03;;;2.00;99.90;;;;;;10449632;28;20232;-79
2023/12/27 17:15:29;;;;;;;68.60;38.17;;;2.00;99.90;;;;;;10443246;28;20235;-80
2023/12/27 17:20:32;;;;;;;68.03;35.23;;;2.10;99.90;;;;;;10447684;28;20254;-82
2023/12/27 17:25:39;;;;;;;66.87;34.40;;;1.80;99.90;;;;;;10448807;28;20261;-80
2023/12/27 17:30:42;;;;;;;64.50;35.53;;;1.80;99.90;;;;;;10447668;28;20285;-80
2023/12/27 17:35:47;;;;;;;64.43;36.60;;;1.30;99.90;;;;;;10472973;28;20232;-81
2023/12/27 17:40:50;;;;;;;96.30;53.87;;;1.10;99.90;;;;;;10446087;28;20235;-80
2023/12/27 17:45:54;;;;;;;98.57;54.33;;;0.50;99.90;;;;;;10448936;28;20235;-80
2023/12/27 17:50:57;;;;;;;85.67;50.00;;;0.30;99.90;;;;;;10449398;28;20264;-79
2023/12/27 17:55:59;;;;;;;89.17;48.03;;;0.20;99.90;;;;;;10448907;28;20258;-80
2023/12/27 18:01:02;;;;;;;82.07;44.13;;;;;;;;;;10440862;28;20256;-80
2023/12/27 18:06:08;;;;;;;78.30;42.23;;;-0.30;99.90;;;;;;10438760;28;20664;-79
2023/12/27 18:11:12;;;;;;;75.10;40.77;;;-0.10;99.90;;;;;;10426527;28;20242;-80
2023/12/27 18:16:15;;;;;;;68.00;38.90;;;-0.50;99.90;;;;;;10446282;28;20309;-80
2023/12/27 18:21:17;;;;;;;81.13;38.57;;;-0.60;99.90;;;;;;10421252;28;20233;-80
2023/12/27 18:26:20;;;;;;;66.13;34.73;;;-0.50;99.90;;;;;;10407616;28;20658;-80
2023/12/27 18:31:38;;;;;;;68.97;38.33;;;-0.70;99.90;;;;;;10406950;28;20265;-80
2023/12/27 18:36:41;;;;;;;67.23;34.97;;;-0.70;99.90;;;;;;10406687;28;20946;-80
2023/12/27 18:41:45;;;;;;;62.93;36.47;;;-0.60;99.90;;;;;;10441645;28;20303;-80
2023/12/27 18:46:48;;;;;;;62.17;38.57;;;-0.40;99.90;;;;;;10445432;28;20255;-80
2023/12/27 18:51:50;;;;;;;57.80;36.87;;;-0.50;99.90;;;;;;10445859;28;20694;-81
2023/12/27 18:56:53;;;;;;;53.37;28.90;;;-0.50;99.90;;;;;;10446231;28;20344;-81
2023/12/27 19:01:57;;;;;;;61.13;29.37;;;-0.50;99.90;;;;;;10447517;28;20228;-80
2023/12/27 19:07:00;;;;;;;56.27;32.93;;;-0.30;99.90;;;;;;10447021;28;20320;-80
2023/12/27 19:12:03;;;;;;;59.60;33.60;;;-0.10;99.90;;;;;;10445571;28;20291;-81
2023/12/27 19:17:09;;;;;;;75.07;43.90;;;0.00;99.90;;;;;;10447529;28;20310;-81
2023/12/27 19:22:12;;;;;;;15.73;8.77;;;0.10;99.90;;;;;;10453412;28;20246;-81
2023/12/27 19:27:14;;;;;;;53.83;32.33;;;;;;;;;;10454891;28;20324;-79
2023/12/27 19:32:17;;;;;;;46.17;26.60;;;0.80;99.90;;;;;;10451390;28;20230;-79
2023/12/27 19:37:19;;;;;;;65.93;40.93;;;0.80;99.90;;;;;;10451487;28;20258;-80
2023/12/27 19:42:24;;;;;;;66.63;35.53;;;0.80;99.90;;;;;;10452892;28;20239;-79
2023/12/27 19:47:28;;;;;;;63.40;33.23;;;;;;;;;;10451612;28;20256;-79
2023/12/27 19:52:34;;;;;;;40.37;19.73;;;0.80;99.90;;;;;;10452026;28;20280;-79
2023/12/27 19:57:36;;;;;;;22.47;12.27;;;1.10;99.90;;;;;;10492666;28;20262;-79
2023/12/27 20:02:39;;;;;;;37.60;18.87;;;1.70;99.90;;;;;;10473817;28;20284;-79
2023/12/27 20:07:42;;;;;;;38.23;20.13;;;2.30;99.90;;;;;;10434171;28;20242;-79
2023/12/27 20:12:44;;;;;;;37.90;20.53;;;2.70;99.90;;;;;;10452948;28;20243;-79
2023/12/27 20:17:47;;;;;;;36.03;18.67;;;2.50;99.90;;;;;;10441435;28;20259;-79
2023/12/27 20:22:50;;;;;;;45.67;22.23;;;2.60;99.90;;;;;;10414579;28;20227;-80
2023/12/27 20:27:53;;;;;;;38.17;18.53;;;2.60;99.90;;;;;;10460577;28;20485;-79
2023/12/27 20:32:56;;;;;;;56.37;29.60;;;3.00;99.90;;;;;;10451619;28;20757;-80
2023/12/27 20:37:59;;;;;;;65.50;32.03;;;3.40;99.90;;;;;;10097888;28;10000326;-79
2023/12/27 20:43:02;;;;;;;56.60;30.23;;;2.20;99.90;;;;;;10449598;28;20293;-79
2023/12/27 20:48:05;;;;;;;62.83;34.20;;;1.00;99.90;;;;;;10452139;28;20628;-79
2023/12/27 20:53:08;;;;;;;67.37;37.60;;;0.60;99.90;;;;;;10444880;28;20227;-79
2023/12/27 20:58:10;;;;;;;82.87;45.53;;;0.40;99.90;;;;;;10441543;28;20270;-79
2023/12/27 21:03:13;;;;;;;69.30;36.83;;;0.40;99.90;;;;;;10423796;28;20280;-79
2023/12/27 21:08:16;;;;;;;59.30;30.77;;;0.40;99.90;;;;;;10445058;28;20631;-79
2023/12/27 21:13:18;;;;;;;29.40;15.27;;;0.40;99.90;;;;;;10446326;28;20246;-79
2023/12/27 21:18:20;;;;;;;18.80;11.53;;;0.40;99.90;;;;;;10434194;28;20730;-79
2023/12/27 21:23:23;;;;;;;45.93;21.57;;;1.10;99.90;;;;;;10446442;28;20304;-80
2023/12/27 21:28:26;;;;;;;70.23;39.07;;;2.10;99.90;;;;;;10444626;28;20255;-80
2023/12/27 21:33:28;;;;;;;43.93;22.40;;;2.40;99.90;;;;;;10445302;28;20249;-80
2023/12/27 21:38:31;;;;;;;22.83;12.73;;;2.60;99.90;;;;;;10445767;28;20722;-79
2023/12/27 21:43:33;;;;;;;85.43;43.20;;;3.50;99.90;;;;;;10445141;28;20246;-79
2023/12/27 21:48:36;;;;;;;35.17;18.23;;;3.40;99.90;;;;;;10435116;28;20293;-79
2023/12/27 21:53:39;;;;;;;61.80;32.00;;;3.60;99.90;;;;;;10444288;28;20705;-79
2023/12/27 21:58:41;;;;;;;52.13;28.73;;;3.60;99.90;;;;;;10439062;28;20248;-79
2023/12/27 22:03:46;;;;;;;45.83;22.60;;;3.30;99.90;;;;;;10430018;28;20270;-79
2023/12/27 22:08:49;;;;;;;34.20;16.97;;;3.40;99.90;;;;;;10469647;28;20279;-80
2023/12/27 22:13:51;;;;;;;38.10;20.73;;;4.40;99.90;;;;;;10442781;28;20236;-79
2023/12/27 22:18:54;;;;;;;39.17;20.70;;;4.60;99.90;;;;;;10445666;28;20266;-79
2023/12/27 22:23:56;;;;;;;44.90;24.83;;;4.60;99.90;;;;;;10447166;28;20676;-80
2023/12/27 22:28:59;;;;;;;43.13;24.60;;;4.10;99.90;;;;;;10445082;28;20729;-79
2023/12/27 22:34:01;;;;;;;53.70;28.67;;;4.40;99.90;;;;;;10454130;28;20254;-79
2023/12/27 22:39:04;;;;;;;45.00;24.50;;;4.60;99.90;;;;;;10447067;28;20261;-79
2023/12/27 22:44:06;;;;;;;44.20;22.63;;;4.50;99.90;;;;;;10448150;28;20235;-80
2023/12/27 22:49:09;;;;;;;34.13;17.60;;;4.90;99.90;;;;;;10443159;28;20291;-80
2023/12/27 22:54:11;;;;;;;36.37;19.43;;;4.90;99.90;;;;;;10441361;28;20239;-79
2023/12/27 22:59:14;;;;;;;62.33;33.07;;;5.00;99.90;;;;;;10448075;28;20250;-80
2023/12/27 23:04:16;;;;;;;39.83;21.73;;;4.80;99.90;;;;;;10453983;28;20222;-80
2023/12/27 23:09:19;;;;;;;29.67;17.53;;;4.30;99.90;;;;;;10453955;28;20245;-80
2023/12/27 23:14:22;;;;;;;57.93;27.73;;;5.00;99.90;;;;;;10453775;28;20284;-80
2023/12/27 23:19:25;;;;;;;55.40;29.00;;;5.40;99.90;;;;;;10453577;28;20726;-80
2023/12/27 23:24:27;;;;;;;49.30;24.77;;;5.20;99.90;;;;;;10450362;28;20769;-80
2023/12/27 23:29:32;;;;;;;58.97;31.53;;;5.00;99.90;;;;;;10448368;28;20836;-80
2023/12/27 23:34:35;;;;;;;36.60;21.17;;;5.10;99.90;;;;;;10450270;28;20873;-80
2023/12/27 23:39:40;;;;;;;24.07;15.23;;;5.40;99.90;;;;;;10450103;28;20303;-80
2023/12/27 23:44:42;;;;;;;38.53;21.47;;;6.00;99.90;;;;;;10450378;28;20264;-79
2023/12/27 23:49:44;;;;;;;28.23;15.73;;;5.70;99.90;;;;;;10448387;28;20337;-79
2023/12/27 23:54:47;;;;;;;27.07;16.37;;;5.60;99.90;;;;;;10450384;28;20234;-79
2023/12/27 23:59:50;;;;;;;33.17;20.40;;;5.40;99.90;;;;;;10452165;28;20257;-79
